createdAt,value
2019-04-19T00:00:56.036Z,16.90
2019-04-19T00:01:57.174Z,16.92
2019-04-19T00:02:51.944Z,16.90
2019-04-19T00:03:51.037Z,16.92
2019-04-19T00:04:53.625Z,16.95
2019-04-19T00:05:51.208Z,16.90
2019-04-19T00:06:58.178Z,16.87
2019-04-19T00:08:00.091Z,16.88
2019-04-19T00:09:12.188Z,16.78
2019-04-19T00:09:57.368Z,16.77
2019-04-19T00:10:55.529Z,16.84
2019-04-19T00:12:04.476Z,16.82
2019-04-19T00:12:55.965Z,16.75
2019-04-19T00:13:49.799Z,16.85
2019-04-19T00:14:50.648Z,16.84
2019-04-19T00:15:49.828Z,16.80
2019-04-19T00:16:50.949Z,16.80
2019-04-19T00:17:52.544Z,16.77
2019-04-19T00:19:14.322Z,16.82
2019-04-19T00:20:16.787Z,16.85
2019-04-19T00:21:06.858Z,16.84
2019-04-19T00:22:24.042Z,16.77
2019-04-19T00:23:02.059Z,16.78
2019-04-19T00:23:52.137Z,16.70
2019-04-19T00:24:50.084Z,16.77
2019-04-19T00:25:49.733Z,16.77
2019-04-19T00:26:50.749Z,16.73
2019-04-19T00:27:54.079Z,16.75
2019-04-19T00:28:54.924Z,16.78
2019-04-19T00:29:57.436Z,16.78
2019-04-19T00:30:59.216Z,16.73
2019-04-19T00:32:08.061Z,16.77
2019-04-19T00:33:04.647Z,16.75
2019-04-19T00:33:53.891Z,16.78
2019-04-19T00:34:50.497Z,16.78
2019-04-19T00:35:49.729Z,16.63
2019-04-19T00:36:50.860Z,16.70
2019-04-19T00:37:52.341Z,16.60
2019-04-19T00:39:06.003Z,16.65
2019-04-19T00:40:07.597Z,16.55
2019-04-19T00:41:06.946Z,16.59
2019-04-19T00:42:10.601Z,16.52
2019-04-19T00:43:03.698Z,16.63
2019-04-19T00:44:05.556Z,16.57
2019-04-19T00:45:09.139Z,16.57
2019-04-19T00:46:09.219Z,16.47
2019-04-19T00:47:07.987Z,16.47
2019-04-19T00:48:04.158Z,16.44
2019-04-19T00:49:02.900Z,16.47
2019-04-19T00:50:02.882Z,16.41
2019-04-19T00:51:07.544Z,16.42
2019-04-19T00:52:05.560Z,16.47
2019-04-19T00:53:04.002Z,16.48
2019-04-19T00:54:00.123Z,16.44
2019-04-19T00:55:02.166Z,16.40
2019-04-19T00:56:00.757Z,16.37
2019-04-19T00:56:57.045Z,16.42
2019-04-19T00:57:54.795Z,16.37
2019-04-19T00:58:56.591Z,16.44
2019-04-19T00:59:51.906Z,16.37
2019-04-19T01:00:51.095Z,16.37
2019-04-19T01:01:56.753Z,16.34
2019-04-19T01:02:54.475Z,16.33
2019-04-19T01:03:51.952Z,16.30
2019-04-19T01:05:00.461Z,16.30
2019-04-19T01:05:58.077Z,16.26
2019-04-19T01:06:54.862Z,16.25
2019-04-19T01:07:49.576Z,16.26
2019-04-19T01:09:00.310Z,16.22
2019-04-19T01:10:06.048Z,16.08
2019-04-19T01:11:10.800Z,16.13
2019-04-19T01:12:03.118Z,16.10
2019-04-19T01:13:05.467Z,16.04
2019-04-19T01:14:00.953Z,16.04
2019-04-19T01:15:04.680Z,15.98
2019-04-19T01:16:04.139Z,15.95
2019-04-19T01:17:06.407Z,15.99
2019-04-19T01:18:08.107Z,15.89
2019-04-19T01:18:58.043Z,15.84
2019-04-19T01:19:55.842Z,15.80
2019-04-19T01:20:50.146Z,15.71
2019-04-19T01:21:49.442Z,15.70
2019-04-19T01:22:58.587Z,15.70
2019-04-19T01:23:54.250Z,15.66
2019-04-19T01:24:50.937Z,15.58
2019-04-19T01:25:54.655Z,15.55
2019-04-19T01:26:53.964Z,15.64
2019-04-19T01:27:49.413Z,15.48
2019-04-19T01:28:53.567Z,15.52
2019-04-19T01:29:54.256Z,15.52
2019-04-19T01:30:50.743Z,15.46
2019-04-19T01:31:58.108Z,15.48
2019-04-19T01:32:54.230Z,15.46
2019-04-19T01:33:50.708Z,15.38
2019-04-19T01:34:57.921Z,15.40
2019-04-19T01:35:53.950Z,15.31
2019-04-19T01:36:51.225Z,15.34
2019-04-19T01:37:53.875Z,15.33
2019-04-19T01:38:58.082Z,15.22
2019-04-19T01:40:05.811Z,15.15
2019-04-19T01:41:09.921Z,15.18
2019-04-19T01:42:00.984Z,15.11
2019-04-19T01:43:01.904Z,14.93
2019-04-19T01:44:06.636Z,14.93
2019-04-19T01:45:08.744Z,14.82
2019-04-19T01:46:03.856Z,14.78
2019-04-19T01:47:06.564Z,14.78
2019-04-19T01:48:04.125Z,14.63
2019-04-19T01:49:03.141Z,14.56
2019-04-19T01:50:03.301Z,14.60
2019-04-19T01:51:04.870Z,14.48
2019-04-19T01:52:07.769Z,14.45
2019-04-19T01:53:09.634Z,14.39
2019-04-19T01:54:08.939Z,14.45
2019-04-19T01:55:01.848Z,14.36
2019-04-19T01:55:54.270Z,14.35
2019-04-19T01:56:53.638Z,14.35
2019-04-19T01:57:49.362Z,14.35
2019-04-19T01:58:55.177Z,14.30
2019-04-19T01:59:54.239Z,14.26
2019-04-19T02:00:52.418Z,14.16
2019-04-19T02:01:50.622Z,14.24
2019-04-19T02:02:54.786Z,14.17
2019-04-19T02:03:52.116Z,14.12
2019-04-19T02:04:52.077Z,14.16
2019-04-19T02:05:54.041Z,14.09
2019-04-19T02:06:51.100Z,14.04
2019-04-19T02:07:56.556Z,14.08
2019-04-19T02:08:53.873Z,13.98
2019-04-19T02:10:02.670Z,13.99
2019-04-19T02:10:59.921Z,14.01
2019-04-19T02:11:57.965Z,13.93
2019-04-19T02:13:00.357Z,13.84
2019-04-19T02:13:58.055Z,13.73
2019-04-19T02:14:57.385Z,13.68
2019-04-19T02:15:52.581Z,13.65
2019-04-19T02:16:52.609Z,13.50
2019-04-19T02:17:51.354Z,13.50
2019-04-19T02:18:49.363Z,13.48
2019-04-19T02:19:56.640Z,13.39
2019-04-19T02:20:50.503Z,13.25
2019-04-19T02:21:50.739Z,13.27
2019-04-19T02:22:55.142Z,13.19
2019-04-19T02:23:53.944Z,13.24
2019-04-19T02:24:52.655Z,13.16
2019-04-19T02:25:51.637Z,13.16
2019-04-19T02:26:56.465Z,13.04
2019-04-19T02:27:51.422Z,13.01
2019-04-19T02:28:49.266Z,12.94
2019-04-19T02:29:56.731Z,12.89
2019-04-19T02:31:06.211Z,12.91
2019-04-19T02:32:15.466Z,12.92
2019-04-19T02:33:15.354Z,12.89
2019-04-19T02:34:26.785Z,12.74
2019-04-19T02:35:11.334Z,12.79
2019-04-19T02:36:20.669Z,12.74
2019-04-19T02:37:16.395Z,12.67
2019-04-19T02:38:15.208Z,12.55
2019-04-19T02:41:17.952Z,12.51
2019-04-19T02:42:27.451Z,12.54
2019-04-19T02:43:17.112Z,12.44
2019-04-19T02:44:12.008Z,12.44
2019-04-19T02:45:17.453Z,12.49
2019-04-19T02:47:21.758Z,12.49
2019-04-19T02:48:23.798Z,12.41
2019-04-19T02:49:24.314Z,12.43
2019-04-19T02:52:27.387Z,12.30
2019-04-19T02:53:16.682Z,12.37
2019-04-19T02:54:20.872Z,12.31
2019-04-19T02:56:31.544Z,12.29
2019-04-19T02:57:21.065Z,12.18
2019-04-19T02:58:13.060Z,12.19
2019-04-19T02:59:21.296Z,12.15
2019-04-19T03:01:18.766Z,12.23
2019-04-19T03:02:25.095Z,12.22
2019-04-19T03:03:13.314Z,12.23
2019-04-19T03:04:24.558Z,12.19
2019-04-19T03:05:30.146Z,12.11
2019-04-19T03:06:03.931Z,12.12
2019-04-19T03:06:55.577Z,12.15
2019-04-19T03:07:50.341Z,12.16
2019-04-19T03:08:48.805Z,12.08
2019-04-19T03:09:50.391Z,12.12
2019-04-19T03:11:02.046Z,12.11
2019-04-19T03:12:03.783Z,12.07
2019-04-19T03:13:03.454Z,12.12
2019-04-19T03:14:03.294Z,12.11
2019-04-19T03:15:02.724Z,12.03
2019-04-19T03:16:08.922Z,12.07
2019-04-19T03:17:04.938Z,12.03
2019-04-19T03:18:18.465Z,12.04
2019-04-19T03:19:00.906Z,12.01
2019-04-19T03:20:05.478Z,11.93
2019-04-19T03:21:00.515Z,11.94
2019-04-19T03:22:01.133Z,11.93
2019-04-19T03:22:59.469Z,11.96
2019-04-19T03:24:05.328Z,11.81
2019-04-19T03:25:06.233Z,11.85
2019-04-19T03:25:59.199Z,11.82
2019-04-19T03:27:02.380Z,11.93
2019-04-19T03:27:59.783Z,11.77
2019-04-19T03:28:54.142Z,11.75
2019-04-19T03:29:55.697Z,11.78
2019-04-19T03:31:14.107Z,11.82
2019-04-19T03:32:24.104Z,11.77
2019-04-19T03:33:19.141Z,11.82
2019-04-19T03:34:13.409Z,11.78
2019-04-19T03:35:03.908Z,11.84
2019-04-19T03:36:05.822Z,11.79
2019-04-19T03:37:00.060Z,11.88
2019-04-19T03:38:08.842Z,11.85
2019-04-19T03:39:13.345Z,11.96
2019-04-19T03:40:21.713Z,11.94
2019-04-19T03:41:09.186Z,11.94
2019-04-19T03:42:18.098Z,11.94
2019-04-19T03:43:11.414Z,11.88
2019-04-19T03:44:03.497Z,11.85
2019-04-19T03:45:08.600Z,11.85
2019-04-19T03:46:08.819Z,11.82
2019-04-19T03:47:10.091Z,11.84
2019-04-19T03:48:08.832Z,11.88
2019-04-19T03:49:14.653Z,11.85
2019-04-19T03:50:04.587Z,11.84
2019-04-19T03:51:18.183Z,11.88
2019-04-19T03:52:15.551Z,11.79
2019-04-19T03:54:08.735Z,11.84
2019-04-19T03:56:12.244Z,11.78
2019-04-19T03:57:06.122Z,11.75
2019-04-19T03:57:58.260Z,11.75
2019-04-19T03:58:51.302Z,11.67
2019-04-19T03:59:48.452Z,11.70
2019-04-19T04:00:50.056Z,11.67
2019-04-19T04:01:53.261Z,11.59
2019-04-19T04:02:50.038Z,11.64
2019-04-19T04:03:51.062Z,11.59
2019-04-19T04:04:53.788Z,11.49
2019-04-19T04:05:51.726Z,11.46
2019-04-19T04:06:49.013Z,11.53
2019-04-19T04:07:59.280Z,11.56
2019-04-19T04:08:55.513Z,11.53
2019-04-19T04:09:52.586Z,11.53
2019-04-19T04:10:49.175Z,11.46
2019-04-19T04:11:56.496Z,11.46
2019-04-19T04:12:57.439Z,11.45
2019-04-19T04:14:03.382Z,11.42
2019-04-19T04:15:03.876Z,11.39
2019-04-19T04:16:03.548Z,11.42
2019-04-19T04:16:51.908Z,11.35
2019-04-19T04:17:48.316Z,11.46
2019-04-19T04:18:49.311Z,11.49
2019-04-19T04:19:48.411Z,11.44
2019-04-19T04:20:52.659Z,11.46
2019-04-19T04:21:50.806Z,11.46
2019-04-19T04:22:49.711Z,11.46
2019-04-19T04:24:00.060Z,11.49
2019-04-19T04:24:58.371Z,11.53
2019-04-19T04:25:58.642Z,11.56
2019-04-19T04:26:58.132Z,11.56
2019-04-19T04:27:59.843Z,11.63
2019-04-19T04:29:02.981Z,11.62
2019-04-19T04:30:00.226Z,11.62
2019-04-19T04:30:53.905Z,11.63
2019-04-19T04:32:01.263Z,11.66
2019-04-19T04:33:02.924Z,11.64
2019-04-19T04:33:56.679Z,11.66
2019-04-19T04:35:07.360Z,11.67
2019-04-19T04:36:04.067Z,11.66
2019-04-19T04:37:01.794Z,11.70
2019-04-19T04:37:58.543Z,11.77
2019-04-19T04:38:49.550Z,11.75
2019-04-19T04:39:49.327Z,11.67
2019-04-19T04:40:48.606Z,11.72
2019-04-19T04:41:49.134Z,11.75
2019-04-19T04:43:03.927Z,11.74
2019-04-19T04:44:07.863Z,11.81
2019-04-19T04:45:17.453Z,11.82
2019-04-19T04:46:16.647Z,11.81
2019-04-19T04:47:08.759Z,11.87
2019-04-19T04:48:04.310Z,11.82
2019-04-19T04:49:04.477Z,11.96
2019-04-19T04:50:11.279Z,11.87
2019-04-19T04:51:10.752Z,11.90
2019-04-19T04:52:00.156Z,11.90
2019-04-19T04:52:49.398Z,11.96
2019-04-19T04:53:49.136Z,12.01
2019-04-19T04:54:48.308Z,12.08
2019-04-19T04:55:53.549Z,12.07
2019-04-19T04:56:58.430Z,12.11
2019-04-19T04:57:54.382Z,12.08
2019-04-19T04:58:49.587Z,11.98
2019-04-19T04:59:50.741Z,12.13
2019-04-19T05:00:55.018Z,12.07
2019-04-19T05:01:58.010Z,12.07
2019-04-19T05:03:05.080Z,12.12
2019-04-19T05:03:58.143Z,12.31
2019-04-19T05:05:07.368Z,12.59
2019-04-19T05:06:09.379Z,13.04
2019-04-19T05:07:05.489Z,13.25
2019-04-19T05:08:11.325Z,13.76
2019-04-19T05:09:06.555Z,14.17
2019-04-19T05:10:06.094Z,14.53
2019-04-19T05:11:07.702Z,14.82
2019-04-19T05:12:15.266Z,15.18
2019-04-19T05:13:27.386Z,15.46
2019-04-19T05:14:07.042Z,15.77
2019-04-19T05:14:59.343Z,16.16
2019-04-19T05:16:06.923Z,16.47
2019-04-19T05:17:22.760Z,16.78
2019-04-19T05:18:12.133Z,16.99
2019-04-19T05:19:03.740Z,17.42
2019-04-19T05:20:12.198Z,17.66
2019-04-19T05:21:02.828Z,17.89
2019-04-19T05:22:08.663Z,18.05
2019-04-19T05:23:05.406Z,18.29
2019-04-19T05:24:08.800Z,18.47
2019-04-19T05:25:12.521Z,18.78
2019-04-19T05:26:10.713Z,18.97
2019-04-19T05:27:10.064Z,19.34
2019-04-19T05:28:08.385Z,19.55
2019-04-19T05:29:03.397Z,20.01
2019-04-19T05:29:51.620Z,20.15
2019-04-19T05:30:56.709Z,20.44
2019-04-19T05:31:52.742Z,20.66
2019-04-19T05:32:57.848Z,20.88
2019-04-19T05:34:11.179Z,21.24
2019-04-19T05:35:05.751Z,21.48
2019-04-19T05:36:11.099Z,21.59
2019-04-19T05:37:05.517Z,21.79
2019-04-19T05:38:03.552Z,21.91
2019-04-19T05:39:09.604Z,21.90
2019-04-19T05:41:00.681Z,22.24
2019-04-19T05:42:03.730Z,22.46
2019-04-19T05:43:02.198Z,22.64
2019-04-19T05:44:14.297Z,22.84
2019-04-19T05:45:20.379Z,23.04
2019-04-19T05:46:21.615Z,23.35
2019-04-19T05:47:06.233Z,23.49
2019-04-19T05:47:56.644Z,23.56
2019-04-19T05:48:58.119Z,23.90
2019-04-19T05:50:07.555Z,24.02
2019-04-19T05:51:14.016Z,24.18
2019-04-19T05:52:07.803Z,24.49
2019-04-19T05:53:06.929Z,24.77
2019-04-19T05:53:50.213Z,24.86
2019-04-19T05:54:47.794Z,25.12
2019-04-19T05:55:47.795Z,25.26
2019-04-19T05:56:53.183Z,25.36
2019-04-19T05:58:02.035Z,25.57
2019-04-19T05:58:57.906Z,25.72
2019-04-19T05:59:56.903Z,25.83
2019-04-19T06:01:02.262Z,26.04
2019-04-19T06:02:02.809Z,26.09
2019-04-19T06:03:01.261Z,26.36
2019-04-19T06:04:07.623Z,26.39
2019-04-19T06:05:11.425Z,26.68
2019-04-19T06:06:16.045Z,26.86
2019-04-19T06:07:08.318Z,26.91
2019-04-19T06:07:59.734Z,27.08
2019-04-19T06:08:47.813Z,27.23
2019-04-19T06:09:47.816Z,27.45
2019-04-19T06:10:53.651Z,27.52
2019-04-19T06:11:48.436Z,27.61
2019-04-19T06:12:49.587Z,27.74
2019-04-19T06:13:57.483Z,27.80
2019-04-19T06:15:08.121Z,27.88
2019-04-19T06:16:07.317Z,27.96
2019-04-19T06:17:01.519Z,27.81
2019-04-19T06:18:06.762Z,27.93
2019-04-19T06:19:01.539Z,27.99
2019-04-19T06:20:08.374Z,28.03
2019-04-19T06:21:10.439Z,28.15
2019-04-19T06:22:00.789Z,28.27
2019-04-19T06:23:07.441Z,28.25
2019-04-19T06:24:15.158Z,28.18
2019-04-19T06:25:00.799Z,28.39
2019-04-19T06:26:27.302Z,28.50
2019-04-19T06:27:13.379Z,28.57
2019-04-19T06:28:22.700Z,28.60
2019-04-19T06:29:25.748Z,28.73
2019-04-19T06:30:10.460Z,28.35
2019-04-19T06:31:12.763Z,28.35
2019-04-19T06:32:11.528Z,28.42
2019-04-19T06:33:07.843Z,28.64
2019-04-19T06:34:08.842Z,28.73
2019-04-19T06:35:02.528Z,29.00
2019-04-19T06:35:53.765Z,28.77
2019-04-19T06:36:58.571Z,28.98
2019-04-19T06:37:48.194Z,29.17
2019-04-19T06:38:48.619Z,29.35
2019-04-19T06:39:52.305Z,29.57
2019-04-19T06:40:54.468Z,29.67
2019-04-19T06:41:55.816Z,29.67
2019-04-19T06:42:58.066Z,29.85
2019-04-19T06:43:59.952Z,30.25
2019-04-19T06:45:10.624Z,30.38
2019-04-19T06:46:02.624Z,30.16
2019-04-19T06:47:00.904Z,30.03
2019-04-19T06:47:56.997Z,29.76
2019-04-19T06:48:54.179Z,29.63
2019-04-19T06:49:50.978Z,29.74
2019-04-19T06:50:52.965Z,29.85
2019-04-19T06:51:57.679Z,29.85
2019-04-19T06:52:48.958Z,30.04
2019-04-19T06:53:53.934Z,30.16
2019-04-19T06:54:48.476Z,30.10
2019-04-19T06:55:52.614Z,30.34
2019-04-19T06:56:57.090Z,30.44
2019-04-19T06:57:58.991Z,30.51
2019-04-19T06:58:59.757Z,30.88
2019-04-19T07:00:03.326Z,31.07
2019-04-19T07:01:02.310Z,31.38
2019-04-19T07:01:52.732Z,31.31
2019-04-19T07:02:48.065Z,31.47
2019-04-19T07:03:49.386Z,31.53
2019-04-19T07:04:56.255Z,30.91
2019-04-19T07:06:06.382Z,30.96
2019-04-19T07:07:12.971Z,30.36
2019-04-19T07:08:25.991Z,30.16
2019-04-19T07:09:13.610Z,30.19
2019-04-19T07:10:18.071Z,30.37
2019-04-19T07:11:11.608Z,30.79
2019-04-19T07:12:09.096Z,31.00
2019-04-19T07:13:04.728Z,31.47
2019-04-19T07:13:57.675Z,31.35
2019-04-19T07:15:06.887Z,30.28
2019-04-19T07:16:15.893Z,29.84
2019-04-19T07:17:07.211Z,30.34
2019-04-19T07:18:05.135Z,30.82
2019-04-19T07:19:08.124Z,31.37
2019-04-19T07:20:06.505Z,31.91
2019-04-19T07:21:07.887Z,32.36
2019-04-19T07:22:04.820Z,32.50
2019-04-19T07:23:04.336Z,32.58
2019-04-19T07:24:11.787Z,32.54
2019-04-19T07:25:11.846Z,31.75
2019-04-19T07:26:10.048Z,30.79
2019-04-19T07:27:09.981Z,30.97
2019-04-19T07:27:59.543Z,30.88
2019-04-19T07:28:49.370Z,30.83
2019-04-19T07:29:49.914Z,31.35
2019-04-19T07:30:53.161Z,31.82
2019-04-19T07:31:49.119Z,31.76
2019-04-19T07:32:55.715Z,31.65
2019-04-19T07:33:57.153Z,30.86
2019-04-19T07:35:03.390Z,31.15
2019-04-19T07:36:08.858Z,31.71
2019-04-19T07:37:09.160Z,31.84
2019-04-19T07:38:17.261Z,32.24
2019-04-19T07:39:09.683Z,32.28
2019-04-19T07:40:14.274Z,32.46
2019-04-19T07:41:05.933Z,31.69
2019-04-19T07:42:13.692Z,31.95
2019-04-19T07:43:06.040Z,32.17
2019-04-19T07:43:59.348Z,32.76
2019-04-19T07:44:55.820Z,33.33
2019-04-19T07:46:12.286Z,33.29
2019-04-19T07:47:01.102Z,33.84
2019-04-19T07:47:57.719Z,33.87
2019-04-19T07:48:49.373Z,33.57
2019-04-19T07:50:00.575Z,33.79
2019-04-19T07:50:56.931Z,33.37
2019-04-19T07:51:58.240Z,33.50
2019-04-19T07:52:56.454Z,33.90
2019-04-19T07:53:51.205Z,33.94
2019-04-19T07:54:55.251Z,33.89
2019-04-19T07:56:00.762Z,33.14
2019-04-19T07:57:01.532Z,33.21
2019-04-19T07:58:24.189Z,33.74
2019-04-19T07:59:14.628Z,34.14
2019-04-19T08:01:15.065Z,34.37
2019-04-19T08:04:38.552Z,35.03
2019-04-19T08:05:18.627Z,33.44
2019-04-19T08:13:19.693Z,34.78
2019-04-19T08:15:22.335Z,35.29
2019-04-19T08:16:47.400Z,35.43
2019-04-19T08:28:03.095Z,36.78
2019-04-19T08:28:56.309Z,36.22
2019-04-19T08:29:56.135Z,35.32
2019-04-19T08:30:55.296Z,35.46
2019-04-19T08:31:49.058Z,35.03
2019-04-19T08:32:49.336Z,35.54
2019-04-19T08:33:48.991Z,36.34
2019-04-19T08:34:55.741Z,37.05
2019-04-19T08:35:52.789Z,37.68
2019-04-19T08:36:52.343Z,36.74
2019-04-19T08:37:50.589Z,36.48
2019-04-19T08:39:08.586Z,37.08
2019-04-19T08:40:04.611Z,37.95
2019-04-19T08:41:02.056Z,38.68
2019-04-19T08:42:12.957Z,38.92
2019-04-19T08:43:09.399Z,38.47
2019-04-19T08:44:05.061Z,38.47
2019-04-19T08:44:56.197Z,38.89
2019-04-19T08:45:49.166Z,39.80
2019-04-19T08:46:49.195Z,40.29
2019-04-19T08:48:00.136Z,40.45
2019-04-19T08:48:54.452Z,41.07
2019-04-19T08:49:51.196Z,41.57
2019-04-19T08:50:52.854Z,41.04
2019-04-19T08:51:50.535Z,41.19
2019-04-19T08:52:56.717Z,40.36
2019-04-19T08:54:08.322Z,40.03
2019-04-19T08:55:11.311Z,39.51
2019-04-19T08:56:10.001Z,39.75
2019-04-19T08:56:57.386Z,40.10
2019-04-19T08:57:57.643Z,40.56
2019-04-19T08:59:09.604Z,41.04
2019-04-19T09:00:12.505Z,41.36
2019-04-19T09:01:13.863Z,42.00
2019-04-19T09:02:10.818Z,42.26
2019-04-19T09:03:03.892Z,42.36
2019-04-19T09:04:09.154Z,42.48
2019-04-19T09:05:08.997Z,42.76
2019-04-19T09:06:48.334Z,42.42
2019-04-19T09:08:12.257Z,42.67
2019-04-19T09:09:02.352Z,42.98
2019-04-19T09:10:26.303Z,43.29
2019-04-19T09:11:05.556Z,43.71
2019-04-19T09:12:08.241Z,43.68
2019-04-19T09:13:19.678Z,44.09
2019-04-19T09:14:11.098Z,44.39
2019-04-19T09:15:06.481Z,44.54
2019-04-19T09:16:07.641Z,44.16
2019-04-19T09:17:12.902Z,42.57
2019-04-19T09:18:25.051Z,41.83
2019-04-19T09:19:18.436Z,41.82
2019-04-19T09:21:05.194Z,42.61
2019-04-19T09:22:07.903Z,43.31
2019-04-19T09:23:04.855Z,41.33
2019-04-19T09:23:57.399Z,41.41
2019-04-19T09:24:57.180Z,40.54
2019-04-19T09:26:04.597Z,40.92
2019-04-19T09:27:06.306Z,41.50
2019-04-19T09:28:15.063Z,41.38
2019-04-19T09:29:18.008Z,41.23
2019-04-19T09:30:11.570Z,40.39
2019-04-19T09:31:04.359Z,40.66
2019-04-19T09:32:00.258Z,41.39
2019-04-19T09:32:50.440Z,41.04
2019-04-19T09:34:00.428Z,41.28
2019-04-19T09:34:59.749Z,40.22
2019-04-19T09:35:58.891Z,38.81
2019-04-19T09:37:02.212Z,39.36
2019-04-19T09:38:02.605Z,40.04
2019-04-19T09:39:03.005Z,40.24
2019-04-19T09:39:59.791Z,39.12
2019-04-19T09:40:56.582Z,39.65
2019-04-19T09:41:57.590Z,40.60
2019-04-19T09:42:57.511Z,41.54
2019-04-19T09:44:01.693Z,41.10
2019-04-19T09:44:56.315Z,40.25
2019-04-19T09:45:51.128Z,40.16
2019-04-19T09:46:50.826Z,40.04
2019-04-19T09:47:50.374Z,39.31
2019-04-19T09:49:05.088Z,39.16
2019-04-19T09:50:04.048Z,38.34
2019-04-19T09:52:03.265Z,38.12
2019-04-19T09:53:20.709Z,37.35
2019-04-19T09:54:13.440Z,36.50
2019-04-19T09:55:16.347Z,36.62
2019-04-19T09:56:11.917Z,35.95
2019-04-19T09:57:05.970Z,35.98
2019-04-19T09:58:12.788Z,35.46
2019-04-19T09:59:02.740Z,35.21
2019-04-19T09:59:58.069Z,34.99
2019-04-19T10:00:53.736Z,33.86
2019-04-19T10:01:55.583Z,33.20
2019-04-19T10:02:56.439Z,32.93
2019-04-19T10:03:55.777Z,33.28
2019-04-19T10:04:50.671Z,33.45
2019-04-19T10:05:51.003Z,32.65
2019-04-19T10:06:51.117Z,33.03
2019-04-19T10:07:50.718Z,32.99
2019-04-19T10:08:51.860Z,33.12
2019-04-19T10:09:55.436Z,32.61
2019-04-19T10:10:51.680Z,33.59
2019-04-19T10:11:50.938Z,34.46
2019-04-19T10:12:51.800Z,34.87
2019-04-19T10:13:50.744Z,35.00
2019-04-19T10:14:51.469Z,34.99
2019-04-19T10:15:50.773Z,34.90
2019-04-19T10:16:50.781Z,34.99
2019-04-19T10:17:50.802Z,34.99
2019-04-19T10:18:55.957Z,34.94
2019-04-19T10:19:50.946Z,34.53
2019-04-19T10:20:51.111Z,35.09
2019-04-19T10:21:51.959Z,35.03
2019-04-19T10:22:50.975Z,35.25
2019-04-19T10:23:51.955Z,35.15
2019-04-19T10:24:53.679Z,34.71
2019-04-19T10:25:55.170Z,34.43
2019-04-19T10:26:50.935Z,34.84
2019-04-19T10:27:51.911Z,35.25
2019-04-19T10:28:50.961Z,34.99
2019-04-19T10:29:51.336Z,34.91
2019-04-19T10:30:51.002Z,34.71
2019-04-19T10:31:53.432Z,34.14
2019-04-19T10:32:53.278Z,33.11
2019-04-19T10:33:55.428Z,32.88
2019-04-19T10:34:52.395Z,33.06
2019-04-19T10:35:51.766Z,34.01
2019-04-19T10:36:52.712Z,34.38
2019-04-19T10:37:51.455Z,34.83
2019-04-19T10:38:53.430Z,35.50
2019-04-19T10:39:51.930Z,35.96
2019-04-19T10:40:51.457Z,36.87
2019-04-19T10:41:52.190Z,37.25
2019-04-19T10:42:51.436Z,37.49
2019-04-19T10:44:01.859Z,37.95
2019-04-19T10:44:52.067Z,37.66
2019-04-19T10:45:52.124Z,37.75
2019-04-19T10:46:51.229Z,38.00
2019-04-19T10:47:51.818Z,38.18
2019-04-19T10:49:01.364Z,38.33
2019-04-19T10:49:57.712Z,37.28
2019-04-19T10:50:53.535Z,37.27
2019-04-19T10:51:52.259Z,37.13
2019-04-19T10:52:52.496Z,36.75
2019-04-19T10:53:52.575Z,36.30
2019-04-19T10:54:51.668Z,35.81
2019-04-19T10:55:52.012Z,35.21
2019-04-19T10:56:52.367Z,36.21
2019-04-19T10:57:51.436Z,35.95
2019-04-19T10:58:52.466Z,35.12
2019-04-19T10:59:52.365Z,35.03
2019-04-19T11:00:51.489Z,34.86
2019-04-19T11:01:52.165Z,34.73
2019-04-19T11:02:52.442Z,34.48
2019-04-19T11:03:52.792Z,34.73
2019-04-19T11:04:51.516Z,35.09
2019-04-19T11:05:52.610Z,35.34
2019-04-19T11:06:51.545Z,35.69
2019-04-19T11:07:51.674Z,35.56
2019-04-19T11:08:51.578Z,35.62
2019-04-19T11:09:51.599Z,34.33
2019-04-19T11:10:51.748Z,34.24
2019-04-19T11:11:51.910Z,34.15
2019-04-19T11:12:52.476Z,34.01
2019-04-19T11:13:52.020Z,33.47
2019-04-19T11:14:52.378Z,33.22
2019-04-19T11:15:52.146Z,31.98
2019-04-19T11:16:51.699Z,31.72
2019-04-19T11:17:51.848Z,30.91
2019-04-19T11:18:51.723Z,31.52
2019-04-19T11:20:04.677Z,31.10
2019-04-19T11:20:54.006Z,30.61
2019-04-19T11:21:51.893Z,31.00
2019-04-19T11:22:51.789Z,31.15
2019-04-19T11:23:51.802Z,31.13
2019-04-19T11:24:52.068Z,30.51
2019-04-19T11:25:52.268Z,29.69
2019-04-19T11:26:52.877Z,29.62
2019-04-19T11:27:53.391Z,29.20
2019-04-19T11:28:51.859Z,28.88
2019-04-19T11:29:52.286Z,28.55
2019-04-19T11:30:52.982Z,28.08
2019-04-19T11:31:52.077Z,27.62
2019-04-19T11:32:52.716Z,27.49
2019-04-19T11:33:53.087Z,27.45
2019-04-19T11:34:51.924Z,27.50
2019-04-19T11:35:53.090Z,27.40
2019-04-19T11:36:51.939Z,27.33
2019-04-19T11:37:53.037Z,27.30
2019-04-19T11:38:51.948Z,27.06
2019-04-19T11:39:53.020Z,27.02
2019-04-19T11:40:53.193Z,27.23
2019-04-19T11:41:51.975Z,27.15
2019-04-19T11:42:53.093Z,26.97
2019-04-19T11:43:51.980Z,26.83
2019-04-19T11:44:52.105Z,26.78
2019-04-19T11:45:51.996Z,26.72
2019-04-19T11:46:52.124Z,26.78
2019-04-19T11:47:53.290Z,26.75
2019-04-19T11:48:52.144Z,26.94
2019-04-19T11:49:52.027Z,27.09
2019-04-19T11:50:52.022Z,27.06
2019-04-19T11:51:53.166Z,27.11
2019-04-19T11:52:52.027Z,27.15
2019-04-19T11:53:52.473Z,27.30
2019-04-19T11:54:52.549Z,27.39
2019-04-19T11:55:52.045Z,27.55
2019-04-19T11:56:58.254Z,27.58
2019-04-19T11:57:52.490Z,27.59
2019-04-19T11:58:52.903Z,27.48
2019-04-19T11:59:54.580Z,27.30
2019-04-19T12:00:52.070Z,27.06
2019-04-19T12:01:52.218Z,27.01
2019-04-19T12:02:52.073Z,27.05
2019-04-19T12:03:52.175Z,27.21
2019-04-19T12:04:52.465Z,27.35
2019-04-19T12:05:52.085Z,27.13
2019-04-19T12:06:52.363Z,26.91
2019-04-19T12:07:52.602Z,27.05
2019-04-19T12:08:52.097Z,27.01
2019-04-19T12:09:52.375Z,27.06
2019-04-19T12:10:52.466Z,27.06
2019-04-19T12:11:52.101Z,26.91
2019-04-19T12:12:53.080Z,26.96
2019-04-19T12:13:52.354Z,27.06
2019-04-19T12:14:53.309Z,27.01
2019-04-19T12:15:52.774Z,26.97
2019-04-19T12:16:53.105Z,26.98
2019-04-19T12:17:52.420Z,26.79
2019-04-19T12:18:52.131Z,26.69
2019-04-19T12:19:57.150Z,26.35
2019-04-19T12:20:53.288Z,26.39
2019-04-19T12:21:53.872Z,26.56
2019-04-19T12:22:52.147Z,26.38
2019-04-19T12:23:52.968Z,26.29
2019-04-19T12:24:54.913Z,26.28
2019-04-19T12:25:53.401Z,26.46
2019-04-19T12:26:53.555Z,26.53
2019-04-19T12:27:52.155Z,26.66
2019-04-19T12:28:53.421Z,26.76
2019-04-19T12:29:54.014Z,26.83
2019-04-19T12:30:55.552Z,26.91
2019-04-19T12:31:54.295Z,26.96
2019-04-19T12:32:53.094Z,26.94
2019-04-19T12:33:53.319Z,26.97
2019-04-19T12:34:52.966Z,27.11
2019-04-19T12:35:53.051Z,27.12
2019-04-19T12:36:53.095Z,27.13
2019-04-19T12:37:53.284Z,27.18
2019-04-19T12:38:52.187Z,27.43
2019-04-19T12:39:52.862Z,27.33
2019-04-19T12:40:52.195Z,27.33
2019-04-19T12:41:52.312Z,27.35
2019-04-19T12:42:52.196Z,27.46
2019-04-19T12:43:52.199Z,27.30
2019-04-19T12:44:52.205Z,27.05
2019-04-19T12:45:53.798Z,26.65
2019-04-19T12:46:52.954Z,26.36
2019-04-19T12:47:53.176Z,26.24
2019-04-19T12:48:52.209Z,26.19
2019-04-19T12:49:59.323Z,26.12
2019-04-19T12:50:53.526Z,26.20
2019-04-19T12:51:52.344Z,26.24
2019-04-19T12:52:52.225Z,26.44
2019-04-19T12:53:52.565Z,26.46
2019-04-19T12:54:52.226Z,26.51
2019-04-19T12:55:52.226Z,26.36
2019-04-19T12:56:52.233Z,26.28
2019-04-19T12:57:52.244Z,26.32
2019-04-19T12:58:53.705Z,26.41
2019-04-19T12:59:52.245Z,26.53
2019-04-19T13:00:52.311Z,26.59
2019-04-19T13:01:53.572Z,26.41
2019-04-19T13:02:52.249Z,26.42
2019-04-19T13:03:52.539Z,26.53
2019-04-19T13:04:52.252Z,26.56
2019-04-19T13:05:53.317Z,26.41
2019-04-19T13:06:52.531Z,26.41
2019-04-19T13:07:53.405Z,26.36
2019-04-19T13:08:52.924Z,26.34
2019-04-19T13:09:53.046Z,26.41
2019-04-19T13:10:53.036Z,26.39
2019-04-19T13:11:52.562Z,26.41
2019-04-19T13:12:52.272Z,26.27
2019-04-19T13:13:52.274Z,26.20
2019-04-19T13:14:53.435Z,26.19
2019-04-19T13:15:52.418Z,26.11
2019-04-19T13:16:52.556Z,26.09
2019-04-19T13:17:52.282Z,26.17
2019-04-19T13:18:52.282Z,26.28
2019-04-19T13:20:06.437Z,26.41
2019-04-19T13:20:52.354Z,26.44
2019-04-19T13:21:52.388Z,26.56
2019-04-19T13:22:52.589Z,26.69
2019-04-19T13:23:52.727Z,26.86
2019-04-19T13:24:52.336Z,26.79
2019-04-19T13:25:53.340Z,26.84
2019-04-19T13:26:53.252Z,26.79
2019-04-19T13:27:55.917Z,26.83